BAW212 KBOS-EGLL
Flight info
| Callsign | BAW212 |
|---|---|
| Flight time | 2h 38m |
| Altitude | 37000 |
| Route | CELTK7 CELTK DCT FRILL DCT TUSKY DCT TUDEP/M085F390 NATX GISTI/N0479F390 DCT KORAK DCT LIFFY UL975 MALUD Q38 NUGRA |
| Aircraft | A388/J-SADE2E3FGHIJ3J4J5M1RWXY/LB1D1 |
Departure
| Time | 2026-05-07 01:01 |
|---|---|
| Airport | Boston Logan International Airport (KBOS) |
Arrival
| Time | 2026-05-07 03:39 |
|---|---|
| Airport | London Heathrow Airport (EGLL) |
| Time | Latitude | Longitude | Altitude | Speed | Heading |
|---|---|---|---|---|---|
| 2026-05-07 00:27 | 42.36979 | -71.01699 | 31 ft | 0 kts | 288° |
| 2026-05-07 00:51 | 42.36979 | -71.01696 | 30 ft | 1 kts | 265° |
| 2026-05-07 00:51 | 42.36980 | -71.01690 | 30 ft | 2 kts | 265° |
| 2026-05-07 00:52 | 42.36978 | -71.01668 | 32 ft | 2 kts | 283° |
| 2026-05-07 00:52 | 42.36970 | -71.01649 | 26 ft | 2 kts | 310° |
| 2026-05-07 00:52 | 42.36956 | -71.01638 | 21 ft | 2 kts | 341° |
| 2026-05-07 00:52 | 42.36939 | -71.01638 | 21 ft | 2 kts | 7° |
| 2026-05-07 00:53 | 42.36932 | -71.01641 | 30 ft | 0 kts | 21° |
| 2026-05-07 00:57 | 42.36937 | -71.01638 | 30 ft | 3 kts | 22° |
| 2026-05-07 00:58 | 42.36988 | -71.01592 | 30 ft | 13 kts | 37° |
| 2026-05-07 00:58 | 42.37083 | -71.01560 | 30 ft | 15 kts | 335° |
| 2026-05-07 00:58 | 42.37168 | -71.01653 | 30 ft | 16 kts | 315° |
| 2026-05-07 00:58 | 42.37251 | -71.01764 | 30 ft | 15 kts | 315° |
| 2026-05-07 00:59 | 42.37334 | -71.01857 | 30 ft | 4 kts | 5° |
| 2026-05-07 00:59 | 42.37359 | -71.01842 | 30 ft | 5 kts | 39° |
| 2026-05-07 00:59 | 42.37386 | -71.01794 | 30 ft | 8 kts | 65° |
| 2026-05-07 01:00 | 42.37381 | -71.01750 | 30 ft | 6 kts | 111° |
| 2026-05-07 01:00 | 42.37354 | -71.01691 | 30 ft | 10 kts | 133° |
| 2026-05-07 01:00 | 42.37276 | -71.01589 | 30 ft | 37 kts | 137° |
| 2026-05-07 01:00 | 42.36876 | -71.01056 | 30 ft | 119 kts | 137° |
| 2026-05-07 01:01 | 42.36167 | -71.00086 | 49 ft | 165 kts | 140° |
| 2026-05-07 01:01 | 42.35345 | -70.98963 | 574 ft | 169 kts | 139° |
| 2026-05-07 01:01 | 42.34546 | -70.97760 | 1114 ft | 175 kts | 133° |
| 2026-05-07 01:01 | 42.33965 | -70.96251 | 1662 ft | 190 kts | 116° |
| 2026-05-07 01:02 | 42.33668 | -70.94415 | 2019 ft | 210 kts | 107° |
| 2026-05-07 01:02 | 42.33381 | -70.92424 | 2351 ft | 222 kts | 108° |
| 2026-05-07 01:02 | 42.33023 | -70.90388 | 2637 ft | 231 kts | 110° |
| 2026-05-07 01:02 | 42.32603 | -70.88179 | 2776 ft | 251 kts | 109° |
| 2026-05-07 01:03 | 42.32267 | -70.85749 | 2941 ft | 283 kts | 93° |
| 2026-05-07 01:03 | 42.32597 | -70.82996 | 3269 ft | 308 kts | 75° |
| 2026-05-07 01:03 | 42.33068 | -70.80221 | 4253 ft | 299 kts | 87° |
| 2026-05-07 01:03 | 42.33258 | -70.77436 | 5068 ft | 302 kts | 78° |
| 2026-05-07 01:04 | 42.34002 | -70.74757 | 5809 ft | 308 kts | 66° |
| 2026-05-07 01:04 | 42.34875 | -70.72096 | 6576 ft | 311 kts | 65° |
| 2026-05-07 01:04 | 42.35782 | -70.69417 | 7345 ft | 315 kts | 64° |
| 2026-05-07 01:04 | 42.36717 | -70.66711 | 8078 ft | 320 kts | 64° |
| 2026-05-07 01:05 | 42.37664 | -70.63996 | 8993 ft | 319 kts | 64° |
| 2026-05-07 01:05 | 42.38618 | -70.61266 | 9714 ft | 325 kts | 64° |
| 2026-05-07 01:05 | 42.39592 | -70.58477 | 10319 ft | 333 kts | 64° |
| 2026-05-07 01:05 | 42.40616 | -70.55546 | 10532 ft | 354 kts | 64° |
| 2026-05-07 01:06 | 42.41698 | -70.52441 | 10700 ft | 374 kts | 64° |
| 2026-05-07 01:06 | 42.42831 | -70.49178 | 11026 ft | 388 kts | 64° |
| 2026-05-07 01:06 | 42.43986 | -70.45848 | 11591 ft | 394 kts | 65° |
| 2026-05-07 01:06 | 42.45154 | -70.42473 | 12182 ft | 398 kts | 65° |
| 2026-05-07 01:07 | 42.46336 | -70.39056 | 12784 ft | 403 kts | 65° |
| 2026-05-07 01:07 | 42.47531 | -70.35596 | 13373 ft | 408 kts | 65° |
| 2026-05-07 01:07 | 42.48741 | -70.32091 | 13943 ft | 412 kts | 65° |
| 2026-05-07 01:07 | 42.49963 | -70.28545 | 14486 ft | 417 kts | 65° |
| 2026-05-07 01:08 | 42.51196 | -70.24964 | 15013 ft | 421 kts | 65° |
| 2026-05-07 01:08 | 42.52439 | -70.21348 | 15535 ft | 426 kts | 66° |
| 2026-05-07 01:08 | 42.53695 | -70.17690 | 16029 ft | 431 kts | 66° |
| 2026-05-07 01:08 | 42.54963 | -70.13991 | 16554 ft | 435 kts | 66° |
| 2026-05-07 01:09 | 42.56241 | -70.10256 | 17057 ft | 439 kts | 66° |
| 2026-05-07 01:09 | 42.57533 | -70.06476 | 17574 ft | 443 kts | 66° |
| 2026-05-07 01:09 | 42.58831 | -70.02674 | 18079 ft | 447 kts | 66° |
| 2026-05-07 01:09 | 42.60141 | -69.98834 | 18534 ft | 449 kts | 66° |
| 2026-05-07 01:10 | 42.61454 | -69.94978 | 19024 ft | 451 kts | 66° |
| 2026-05-07 01:10 | 42.62774 | -69.91093 | 19496 ft | 453 kts | 66° |
| 2026-05-07 01:10 | 42.64079 | -69.87249 | 19996 ft | 454 kts | 66° |
| 2026-05-07 01:10 | 42.65406 | -69.83336 | 20454 ft | 456 kts | 66° |
| 2026-05-07 01:11 | 42.66736 | -69.79410 | 20894 ft | 458 kts | 66° |
| 2026-05-07 01:11 | 42.68069 | -69.75467 | 21349 ft | 460 kts | 66° |
| 2026-05-07 01:11 | 42.69407 | -69.71504 | 21799 ft | 463 kts | 66° |
| 2026-05-07 01:11 | 42.70753 | -69.67510 | 22241 ft | 465 kts | 66° |
| 2026-05-07 01:12 | 42.72103 | -69.63501 | 22688 ft | 467 kts | 66° |
| 2026-05-07 01:12 | 42.73458 | -69.59467 | 23131 ft | 470 kts | 66° |
| 2026-05-07 01:12 | 42.74817 | -69.55418 | 23525 ft | 472 kts | 66° |
| 2026-05-07 01:12 | 42.76184 | -69.51345 | 23905 ft | 474 kts | 66° |
| 2026-05-07 01:13 | 42.77554 | -69.47253 | 24217 ft | 477 kts | 66° |
| 2026-05-07 01:13 | 42.78934 | -69.43120 | 24524 ft | 481 kts | 66° |
| 2026-05-07 01:13 | 42.80322 | -69.38955 | 24842 ft | 484 kts | 66° |
| 2026-05-07 01:13 | 42.81716 | -69.34768 | 25168 ft | 488 kts | 66° |
| 2026-05-07 01:14 | 42.83104 | -69.30594 | 25499 ft | 492 kts | 66° |
| 2026-05-07 01:14 | 42.84521 | -69.26328 | 25837 ft | 496 kts | 66° |
| 2026-05-07 01:14 | 42.85964 | -69.21974 | 26195 ft | 499 kts | 65° |
| 2026-05-07 01:14 | 42.87396 | -69.17650 | 26545 ft | 503 kts | 65° |
| 2026-05-07 01:15 | 42.88823 | -69.13330 | 26930 ft | 507 kts | 65° |
| 2026-05-07 01:15 | 42.90272 | -69.08940 | 27319 ft | 511 kts | 65° |
| 2026-05-07 01:15 | 42.91736 | -69.04497 | 27711 ft | 515 kts | 65° |
| 2026-05-07 01:15 | 42.93204 | -69.00032 | 28075 ft | 519 kts | 65° |
| 2026-05-07 01:16 | 42.94687 | -68.95515 | 28468 ft | 523 kts | 65° |
| 2026-05-07 01:16 | 42.96175 | -68.90975 | 28860 ft | 527 kts | 65° |
| 2026-05-07 01:16 | 42.97676 | -68.86389 | 29246 ft | 531 kts | 65° |
| 2026-05-07 01:16 | 42.99186 | -68.81766 | 29695 ft | 533 kts | 64° |
| 2026-05-07 01:17 | 43.00704 | -68.77110 | 30034 ft | 538 kts | 65° |
| 2026-05-07 01:17 | 43.02229 | -68.72426 | 30423 ft | 541 kts | 65° |
| 2026-05-07 01:17 | 43.03757 | -68.67723 | 30805 ft | 543 kts | 65° |
| 2026-05-07 01:17 | 43.05292 | -68.62990 | 31181 ft | 546 kts | 65° |
| 2026-05-07 01:18 | 43.06835 | -68.58224 | 31543 ft | 549 kts | 65° |
| 2026-05-07 01:18 | 43.08386 | -68.53424 | 31903 ft | 552 kts | 65° |
| 2026-05-07 01:18 | 43.09938 | -68.48613 | 32256 ft | 555 kts | 65° |
| 2026-05-07 01:18 | 43.11480 | -68.43825 | 32650 ft | 558 kts | 65° |
| 2026-05-07 01:19 | 43.13046 | -68.38958 | 33047 ft | 560 kts | 65° |
| 2026-05-07 01:19 | 43.14633 | -68.34011 | 33457 ft | 560 kts | 65° |
| 2026-05-07 01:19 | 43.16179 | -68.29181 | 33829 ft | 563 kts | 65° |
| 2026-05-07 01:19 | 43.17752 | -68.24259 | 34118 ft | 566 kts | 65° |
| 2026-05-07 01:20 | 43.19331 | -68.19310 | 34445 ft | 568 kts | 65° |
| 2026-05-07 01:20 | 43.20911 | -68.14348 | 34872 ft | 568 kts | 65° |
| 2026-05-07 01:20 | 43.22486 | -68.09392 | 35330 ft | 567 kts | 65° |
| 2026-05-07 01:20 | 43.24059 | -68.04434 | 35814 ft | 565 kts | 65° |
| 2026-05-07 01:21 | 43.25621 | -67.99505 | 36303 ft | 564 kts | 65° |
| 2026-05-07 01:21 | 43.27179 | -67.94573 | 36736 ft | 563 kts | 65° |
| 2026-05-07 01:21 | 43.28739 | -67.89629 | 36883 ft | 569 kts | 65° |
| 2026-05-07 01:22 | 43.31861 | -67.79705 | 36890 ft | 564 kts | 65° |
| 2026-05-07 01:22 | 43.34967 | -67.69796 | 36889 ft | 565 kts | 65° |
| 2026-05-07 01:23 | 43.38065 | -67.59875 | 36886 ft | 564 kts | 66° |
| 2026-05-07 01:23 | 43.41147 | -67.49968 | 36885 ft | 564 kts | 66° |
| 2026-05-07 01:24 | 43.44228 | -67.40024 | 36897 ft | 564 kts | 66° |
| 2026-05-07 01:24 | 43.47299 | -67.30076 | 36908 ft | 564 kts | 66° |
| 2026-05-07 01:25 | 43.50341 | -67.20184 | 36919 ft | 564 kts | 66° |
| 2026-05-07 01:25 | 43.53392 | -67.10228 | 36915 ft | 564 kts | 66° |
| 2026-05-07 01:26 | 43.56925 | -67.00632 | 36907 ft | 560 kts | 53° |
| 2026-05-07 01:26 | 43.61849 | -66.92410 | 36905 ft | 554 kts | 42° |
| 2026-05-07 01:27 | 43.67201 | -66.84723 | 36904 ft | 555 kts | 43° |
| 2026-05-07 01:27 | 43.72541 | -66.77026 | 36905 ft | 555 kts | 43° |
| 2026-05-07 01:28 | 43.76987 | -66.70642 | 36924 ft | 555 kts | 43° |
| 2026-05-07 01:28 | 43.82340 | -66.62946 | 36925 ft | 554 kts | 43° |
| 2026-05-07 01:29 | 43.87680 | -66.55249 | 36950 ft | 554 kts | 43° |
| 2026-05-07 01:29 | 43.93018 | -66.47534 | 36966 ft | 554 kts | 43° |
| 2026-05-07 01:30 | 43.98346 | -66.39811 | 36949 ft | 554 kts | 43° |
| 2026-05-07 01:30 | 44.03671 | -66.32068 | 36947 ft | 554 kts | 43° |
| 2026-05-07 01:31 | 44.08990 | -66.24304 | 36953 ft | 554 kts | 44° |
| 2026-05-07 01:31 | 44.14306 | -66.16519 | 36962 ft | 554 kts | 44° |
| 2026-05-07 01:32 | 44.19605 | -66.08737 | 36951 ft | 554 kts | 44° |
| 2026-05-07 01:32 | 44.24874 | -66.00978 | 36946 ft | 554 kts | 44° |
| 2026-05-07 01:33 | 44.30176 | -65.93149 | 36947 ft | 554 kts | 44° |
| 2026-05-07 01:33 | 44.35461 | -65.85324 | 36959 ft | 554 kts | 44° |
| 2026-05-07 01:34 | 44.40745 | -65.77478 | 36968 ft | 554 kts | 44° |
| 2026-05-07 01:34 | 44.46019 | -65.69623 | 36965 ft | 553 kts | 45° |
| 2026-05-07 01:35 | 44.51287 | -65.61755 | 36977 ft | 553 kts | 45° |
| 2026-05-07 01:35 | 44.56534 | -65.53897 | 36961 ft | 551 kts | 45° |
| 2026-05-07 01:36 | 44.61735 | -65.46086 | 36958 ft | 551 kts | 45° |
| 2026-05-07 01:36 | 44.66968 | -65.38204 | 36984 ft | 550 kts | 45° |
| 2026-05-07 01:37 | 44.72188 | -65.30320 | 36965 ft | 551 kts | 45° |
| 2026-05-07 01:37 | 44.77406 | -65.22416 | 36967 ft | 551 kts | 45° |
| 2026-05-07 01:38 | 44.82612 | -65.14507 | 36972 ft | 551 kts | 46° |
| 2026-05-07 01:38 | 44.87816 | -65.06580 | 36974 ft | 551 kts | 46° |
| 2026-05-07 01:39 | 44.93020 | -64.98628 | 36981 ft | 551 kts | 46° |
| 2026-05-07 01:39 | 44.98185 | -64.90715 | 37002 ft | 552 kts | 46° |
| 2026-05-07 01:40 | 45.03383 | -64.82729 | 36969 ft | 552 kts | 46° |
| 2026-05-07 01:40 | 45.08577 | -64.74724 | 36970 ft | 552 kts | 46° |
| 2026-05-07 01:41 | 45.13769 | -64.66701 | 36978 ft | 552 kts | 47° |
| 2026-05-07 01:41 | 45.18947 | -64.58676 | 36967 ft | 552 kts | 47° |
| 2026-05-07 01:42 | 45.24120 | -64.50632 | 36956 ft | 550 kts | 47° |
| 2026-05-07 01:42 | 45.29273 | -64.42599 | 36950 ft | 550 kts | 47° |
| 2026-05-07 01:43 | 45.34423 | -64.34547 | 36944 ft | 551 kts | 47° |
| 2026-05-07 01:43 | 45.39579 | -64.26462 | 36946 ft | 551 kts | 47° |
| 2026-05-07 01:44 | 45.44729 | -64.18362 | 36944 ft | 552 kts | 47° |
| 2026-05-07 01:44 | 45.49877 | -64.10242 | 36953 ft | 552 kts | 47° |
| 2026-05-07 01:45 | 45.55011 | -64.02119 | 36962 ft | 552 kts | 47° |
| 2026-05-07 01:45 | 45.60145 | -63.93974 | 36964 ft | 551 kts | 47° |
| 2026-05-07 01:46 | 45.65239 | -63.85867 | 36964 ft | 551 kts | 47° |
| 2026-05-07 01:46 | 45.70355 | -63.77701 | 36958 ft | 550 kts | 48° |
| 2026-05-07 01:47 | 45.86841 | -63.51226 | 36961 ft | 549 kts | 48° |
| 2026-05-07 01:47 | 46.07083 | -63.18361 | 36998 ft | 549 kts | 49° |
| 2026-05-07 01:48 | 46.27310 | -62.85123 | 36986 ft | 552 kts | 49° |
| 2026-05-07 01:48 | 46.47326 | -62.51830 | 36979 ft | 551 kts | 50° |
| 2026-05-07 01:49 | 46.67362 | -62.18091 | 37005 ft | 549 kts | 50° |
| 2026-05-07 01:49 | 46.83921 | -61.89893 | 36990 ft | 550 kts | 50° |
| 2026-05-07 01:50 | 46.93853 | -61.72832 | 36989 ft | 550 kts | 50° |
| 2026-05-07 01:50 | 47.03753 | -61.55725 | 36992 ft | 551 kts | 50° |
| 2026-05-07 01:51 | 47.13661 | -61.38496 | 36992 ft | 552 kts | 50° |
| 2026-05-07 01:51 | 47.23474 | -61.21325 | 36994 ft | 553 kts | 50° |
| 2026-05-07 01:52 | 47.33367 | -61.03902 | 37001 ft | 554 kts | 50° |
| 2026-05-07 01:52 | 47.43219 | -60.86436 | 36991 ft | 553 kts | 50° |
| 2026-05-07 01:53 | 47.53054 | -60.68893 | 36997 ft | 554 kts | 50° |
| 2026-05-07 01:53 | 47.62865 | -60.51279 | 37001 ft | 553 kts | 50° |
| 2026-05-07 01:54 | 47.72620 | -60.33648 | 37009 ft | 552 kts | 50° |
| 2026-05-07 01:54 | 47.82286 | -60.16066 | 37021 ft | 552 kts | 50° |
| 2026-05-07 01:55 | 47.91990 | -59.98300 | 37023 ft | 552 kts | 50° |
| 2026-05-07 01:55 | 48.01668 | -59.80460 | 37037 ft | 552 kts | 50° |
| 2026-05-07 01:56 | 48.11303 | -59.62584 | 37078 ft | 550 kts | 50° |
| 2026-05-07 01:56 | 48.20842 | -59.44769 | 37059 ft | 546 kts | 50° |
| 2026-05-07 01:57 | 48.30321 | -59.26950 | 37025 ft | 545 kts | 50° |
| 2026-05-07 01:57 | 48.39732 | -59.09140 | 37030 ft | 543 kts | 50° |
| 2026-05-07 01:58 | 48.49025 | -58.91436 | 37034 ft | 542 kts | 50° |
| 2026-05-07 01:58 | 48.58351 | -58.73555 | 37038 ft | 542 kts | 50° |
| 2026-05-07 01:59 | 48.67638 | -58.55627 | 37074 ft | 540 kts | 50° |
| 2026-05-07 01:59 | 48.76879 | -58.37668 | 37081 ft | 539 kts | 50° |
| 2026-05-07 02:00 | 48.87220 | -58.17428 | 37087 ft | 536 kts | 50° |
| 2026-05-07 02:00 | 48.96263 | -57.99600 | 37071 ft | 534 kts | 51° |
| 2026-05-07 02:01 | 49.05295 | -57.81677 | 37068 ft | 533 kts | 51° |
| 2026-05-07 02:01 | 49.14311 | -57.63665 | 37067 ft | 533 kts | 51° |
| 2026-05-07 02:02 | 49.23299 | -57.45587 | 37071 ft | 534 kts | 51° |
| 2026-05-07 02:02 | 49.32260 | -57.27440 | 37084 ft | 535 kts | 51° |
| 2026-05-07 02:03 | 49.41207 | -57.09197 | 37080 ft | 535 kts | 51° |
| 2026-05-07 02:03 | 49.50139 | -56.90861 | 37078 ft | 535 kts | 51° |
| 2026-05-07 02:04 | 49.59031 | -56.72476 | 37089 ft | 534 kts | 51° |
| 2026-05-07 02:04 | 49.67864 | -56.54090 | 37073 ft | 532 kts | 51° |
| 2026-05-07 02:05 | 49.83129 | -56.22017 | 37054 ft | 531 kts | 52° |
| 2026-05-07 02:05 | 50.00435 | -55.85174 | 37051 ft | 532 kts | 52° |
| 2026-05-07 02:06 | 50.17864 | -55.47540 | 37047 ft | 532 kts | 52° |
| 2026-05-07 02:06 | 50.31150 | -55.18490 | 37041 ft | 532 kts | 52° |
| 2026-05-07 02:07 | 50.39359 | -55.00373 | 37039 ft | 531 kts | 52° |
| 2026-05-07 02:07 | 50.52037 | -54.72154 | 37043 ft | 530 kts | 52° |
| 2026-05-07 02:08 | 50.60491 | -54.53164 | 37044 ft | 530 kts | 52° |
| 2026-05-07 02:08 | 50.68936 | -54.34059 | 37045 ft | 530 kts | 53° |
| 2026-05-07 02:09 | 50.77324 | -54.14942 | 37058 ft | 529 kts | 53° |
| 2026-05-07 02:09 | 50.85662 | -53.95803 | 37069 ft | 527 kts | 53° |
| 2026-05-07 02:10 | 50.93960 | -53.76655 | 37047 ft | 526 kts | 53° |
| 2026-05-07 02:10 | 51.02163 | -53.57597 | 37084 ft | 524 kts | 53° |
| 2026-05-07 02:11 | 51.10341 | -53.38460 | 37066 ft | 522 kts | 53° |
| 2026-05-07 02:11 | 51.17864 | -53.18638 | 37049 ft | 524 kts | 62° |
| 2026-05-07 02:12 | 51.23777 | -52.97392 | 37058 ft | 525 kts | 64° |
| 2026-05-07 02:12 | 51.29630 | -52.76004 | 37073 ft | 526 kts | 65° |
| 2026-05-07 02:13 | 51.36153 | -52.51794 | 37076 ft | 527 kts | 65° |
| 2026-05-07 02:13 | 51.41889 | -52.30288 | 37114 ft | 523 kts | 65° |
| 2026-05-07 02:14 | 51.46604 | -52.12459 | 37688 ft | 521 kts | 65° |
| 2026-05-07 02:14 | 51.50842 | -51.96317 | 39041 ft | 518 kts | 65° |
| 2026-05-07 02:14 | 51.54049 | -51.84023 | 39099 ft | 508 kts | 66° |
| 2026-05-07 02:15 | 51.58623 | -51.66377 | 39101 ft | 510 kts | 66° |
| 2026-05-07 02:15 | 51.64055 | -51.45234 | 39108 ft | 509 kts | 66° |
| 2026-05-07 02:16 | 51.69363 | -51.24382 | 39086 ft | 505 kts | 66° |
| 2026-05-07 02:16 | 51.74643 | -51.03444 | 39072 ft | 502 kts | 66° |
| 2026-05-07 02:17 | 51.79935 | -50.82268 | 39112 ft | 510 kts | 66° |
| 2026-05-07 02:17 | 51.85229 | -50.60870 | 39113 ft | 511 kts | 66° |
| 2026-05-07 02:18 | 51.92311 | -50.31921 | 39110 ft | 511 kts | 66° |
| 2026-05-07 02:18 | 52.01606 | -49.88672 | 39122 ft | 514 kts | 76° |
| 2026-05-07 02:19 | 52.08086 | -49.43347 | 39139 ft | 515 kts | 75° |
| 2026-05-07 02:19 | 52.14362 | -48.97835 | 39141 ft | 514 kts | 75° |
| 2026-05-07 02:20 | 52.18303 | -48.68502 | 39123 ft | 514 kts | 75° |
| 2026-05-07 02:20 | 52.21309 | -48.45701 | 39149 ft | 513 kts | 75° |
| 2026-05-07 02:21 | 52.24256 | -48.23007 | 39128 ft | 511 kts | 75° |
| 2026-05-07 02:21 | 52.27159 | -48.00284 | 39131 ft | 510 kts | 75° |
| 2026-05-07 02:22 | 52.30011 | -47.77590 | 39129 ft | 510 kts | 76° |
| 2026-05-07 02:22 | 52.32815 | -47.54903 | 39151 ft | 508 kts | 75° |
| 2026-05-07 02:23 | 52.37235 | -47.18355 | 39135 ft | 506 kts | 76° |
| 2026-05-07 02:23 | 52.42545 | -46.73042 | 39165 ft | 506 kts | 76° |
| 2026-05-07 02:24 | 52.46909 | -46.34568 | 39153 ft | 505 kts | 76° |
| 2026-05-07 02:24 | 52.50747 | -45.99755 | 39473 ft | 502 kts | 77° |
| 2026-05-07 02:25 | 52.52219 | -45.86039 | 39161 ft | 499 kts | 77° |
| 2026-05-07 02:25 | 52.53656 | -45.72581 | 39161 ft | 501 kts | 77° |
| 2026-05-07 02:25 | 52.56029 | -45.49989 | 39172 ft | 501 kts | 77° |
| 2026-05-07 02:26 | 52.58350 | -45.27466 | 39155 ft | 499 kts | 77° |
| 2026-05-07 02:26 | 52.60628 | -45.04931 | 39142 ft | 498 kts | 77° |
| 2026-05-07 02:27 | 52.62856 | -44.82432 | 39157 ft | 499 kts | 78° |
| 2026-05-07 02:27 | 52.66058 | -44.49311 | 39171 ft | 501 kts | 78° |
| 2026-05-07 02:28 | 52.70292 | -44.03874 | 39207 ft | 499 kts | 78° |
| 2026-05-07 02:28 | 52.74285 | -43.59100 | 39194 ft | 494 kts | 78° |
| 2026-05-07 02:29 | 52.78110 | -43.14235 | 39203 ft | 492 kts | 79° |
| 2026-05-07 02:29 | 52.81757 | -42.69401 | 39205 ft | 492 kts | 79° |
| 2026-05-07 02:30 | 52.85243 | -42.24394 | 39218 ft | 495 kts | 79° |
| 2026-05-07 02:30 | 52.88572 | -41.79103 | 39213 ft | 497 kts | 79° |
| 2026-05-07 02:31 | 52.91740 | -41.33572 | 39228 ft | 497 kts | 79° |
| 2026-05-07 02:31 | 52.94728 | -40.88084 | 39215 ft | 496 kts | 79° |
| 2026-05-07 02:32 | 52.97522 | -40.42890 | 39234 ft | 494 kts | 80° |
| 2026-05-07 02:32 | 53.00194 | -39.97547 | 39211 ft | 492 kts | 78° |
| 2026-05-07 02:33 | 53.06616 | -39.53672 | 39214 ft | 490 kts | 72° |
| 2026-05-07 02:33 | 53.12787 | -39.09217 | 39230 ft | 494 kts | 73° |
| 2026-05-07 02:34 | 53.18784 | -38.64610 | 39225 ft | 493 kts | 73° |
| 2026-05-07 02:34 | 53.24637 | -38.19702 | 39207 ft | 495 kts | 73° |
| 2026-05-07 02:35 | 53.30298 | -37.74854 | 39206 ft | 496 kts | 73° |
| 2026-05-07 02:35 | 53.35820 | -37.29645 | 39210 ft | 496 kts | 74° |
| 2026-05-07 02:36 | 53.41177 | -36.84268 | 39220 ft | 496 kts | 75° |
| 2026-05-07 02:36 | 53.46354 | -36.38851 | 39203 ft | 495 kts | 75° |
| 2026-05-07 02:37 | 53.51349 | -35.93400 | 39198 ft | 495 kts | 75° |
| 2026-05-07 02:37 | 53.56174 | -35.47816 | 39201 ft | 495 kts | 76° |
| 2026-05-07 02:38 | 53.60822 | -35.02183 | 39197 ft | 494 kts | 76° |
| 2026-05-07 02:38 | 53.65300 | -34.56398 | 39185 ft | 495 kts | 77° |
| 2026-05-07 02:39 | 53.69615 | -34.10393 | 39196 ft | 496 kts | 77° |
| 2026-05-07 02:39 | 53.73747 | -33.64346 | 39182 ft | 496 kts | 77° |
| 2026-05-07 02:40 | 53.77685 | -33.18422 | 39176 ft | 497 kts | 78° |
| 2026-05-07 02:40 | 53.81472 | -32.72117 | 39166 ft | 495 kts | 78° |
| 2026-05-07 02:41 | 53.85071 | -32.25848 | 39157 ft | 496 kts | 79° |
| 2026-05-07 02:41 | 53.88505 | -31.79333 | 39165 ft | 498 kts | 79° |
| 2026-05-07 02:42 | 53.91759 | -31.32702 | 39138 ft | 497 kts | 80° |
| 2026-05-07 02:42 | 53.94834 | -30.85994 | 39134 ft | 498 kts | 80° |
| 2026-05-07 02:43 | 53.97726 | -30.39291 | 39138 ft | 500 kts | 81° |
| 2026-05-07 02:43 | 54.00322 | -29.92100 | 39117 ft | 502 kts | 84° |
| 2026-05-07 02:44 | 54.02177 | -29.44710 | 39109 ft | 503 kts | 83° |
| 2026-05-07 02:44 | 54.03848 | -28.97114 | 39105 ft | 505 kts | 84° |
| 2026-05-07 02:45 | 54.05280 | -28.51221 | 39275 ft | 509 kts | 84° |
| 2026-05-07 02:45 | 54.05619 | -28.39198 | 39102 ft | 506 kts | 84° |
| 2026-05-07 02:45 | 54.05949 | -28.27169 | 39101 ft | 508 kts | 85° |
| 2026-05-07 02:46 | 54.07019 | -27.85170 | 39093 ft | 506 kts | 85° |
| 2026-05-07 02:46 | 54.08057 | -27.37325 | 39068 ft | 506 kts | 86° |
| 2026-05-07 02:47 | 54.08907 | -26.89256 | 39075 ft | 509 kts | 86° |
| 2026-05-07 02:47 | 54.09569 | -26.40891 | 39072 ft | 511 kts | 87° |
| 2026-05-07 02:48 | 54.10035 | -25.92766 | 39058 ft | 512 kts | 87° |
| 2026-05-07 02:48 | 54.10312 | -25.44159 | 39053 ft | 513 kts | 88° |
| 2026-05-07 02:49 | 54.10391 | -24.95533 | 39041 ft | 514 kts | 89° |
| 2026-05-07 02:49 | 54.10274 | -24.46800 | 39051 ft | 514 kts | 89° |
| 2026-05-07 02:50 | 54.09960 | -23.98010 | 39036 ft | 515 kts | 90° |
| 2026-05-07 02:50 | 54.09676 | -23.68614 | 39025 ft | 514 kts | 91° |
| 2026-05-07 02:51 | 54.09383 | -23.44238 | 39019 ft | 515 kts | 91° |
| 2026-05-07 02:51 | 54.08977 | -23.15370 | 39006 ft | 516 kts | 91° |
| 2026-05-07 02:52 | 54.08137 | -22.66820 | 39010 ft | 516 kts | 92° |
| 2026-05-07 02:52 | 54.07092 | -22.17957 | 38994 ft | 516 kts | 92° |
| 2026-05-07 02:53 | 54.05852 | -21.69189 | 38985 ft | 515 kts | 92° |
| 2026-05-07 02:53 | 54.04412 | -21.20398 | 38981 ft | 516 kts | 93° |
| 2026-05-07 02:54 | 54.02776 | -20.71653 | 38975 ft | 516 kts | 94° |
| 2026-05-07 02:54 | 54.00958 | -20.22955 | 38985 ft | 515 kts | 94° |
| 2026-05-07 02:55 | 53.95642 | -19.75454 | 38954 ft | 512 kts | 108° |
| 2026-05-07 02:55 | 53.87388 | -19.29215 | 38955 ft | 512 kts | 108° |
| 2026-05-07 02:56 | 53.78915 | -18.83183 | 38952 ft | 511 kts | 109° |
| 2026-05-07 02:56 | 53.70340 | -18.37720 | 38935 ft | 511 kts | 109° |
| 2026-05-07 02:57 | 53.61859 | -17.93795 | 38924 ft | 509 kts | 110° |
| 2026-05-07 02:57 | 53.55979 | -17.63936 | 38919 ft | 510 kts | 110° |
| 2026-05-07 02:58 | 53.50360 | -17.35821 | 38917 ft | 510 kts | 110° |
| 2026-05-07 02:58 | 53.41209 | -16.90861 | 38911 ft | 508 kts | 111° |
| 2026-05-07 02:59 | 53.35654 | -16.64064 | 38914 ft | 507 kts | 111° |
| 2026-05-07 02:59 | 53.31115 | -16.42427 | 38948 ft | 504 kts | 111° |
| 2026-05-07 03:00 | 53.23464 | -16.06457 | 38914 ft | 505 kts | 112° |
| 2026-05-07 03:00 | 53.16872 | -15.61418 | 38913 ft | 510 kts | 85° |
| 2026-05-07 03:01 | 53.19359 | -15.20101 | 38911 ft | 510 kts | 85° |
| 2026-05-07 03:01 | 53.21006 | -14.91401 | 38915 ft | 509 kts | 86° |
| 2026-05-07 03:02 | 53.22083 | -14.71848 | 38910 ft | 508 kts | 86° |
| 2026-05-07 03:02 | 53.23337 | -14.48339 | 38907 ft | 508 kts | 86° |
| 2026-05-07 03:03 | 53.24544 | -14.24813 | 38912 ft | 507 kts | 86° |
| 2026-05-07 03:03 | 53.25699 | -14.01389 | 38907 ft | 506 kts | 86° |
| 2026-05-07 03:04 | 53.26810 | -13.77947 | 38908 ft | 506 kts | 86° |
| 2026-05-07 03:04 | 53.28424 | -13.42031 | 38901 ft | 505 kts | 87° |
| 2026-05-07 03:05 | 53.30358 | -12.95234 | 38909 ft | 505 kts | 87° |
| 2026-05-07 03:05 | 53.32109 | -12.48433 | 38923 ft | 503 kts | 87° |
| 2026-05-07 03:06 | 53.33143 | -12.18109 | 38911 ft | 501 kts | 88° |
| 2026-05-07 03:06 | 53.33883 | -11.94844 | 38915 ft | 501 kts | 88° |
| 2026-05-07 03:07 | 53.34575 | -11.71756 | 38930 ft | 499 kts | 88° |
| 2026-05-07 03:07 | 53.35326 | -11.44810 | 38916 ft | 499 kts | 88° |
| 2026-05-07 03:08 | 53.35652 | -11.32417 | 39057 ft | 499 kts | 88° |
| 2026-05-07 03:08 | 53.36203 | -11.10205 | 38932 ft | 498 kts | 88° |
| 2026-05-07 03:08 | 53.36877 | -10.80259 | 38936 ft | 498 kts | 89° |
| 2026-05-07 03:09 | 53.37365 | -10.56145 | 38923 ft | 497 kts | 89° |
| 2026-05-07 03:09 | 53.38170 | -10.09884 | 38929 ft | 496 kts | 89° |
| 2026-05-07 03:10 | 53.38792 | -9.63755 | 38928 ft | 495 kts | 89° |
| 2026-05-07 03:10 | 53.39236 | -9.17613 | 38946 ft | 495 kts | 90° |
| 2026-05-07 03:11 | 53.39502 | -8.71536 | 38965 ft | 493 kts | 90° |
| 2026-05-07 03:11 | 53.39591 | -8.25967 | 38955 ft | 491 kts | 90° |
| 2026-05-07 03:12 | 53.39555 | -7.89208 | 38932 ft | 490 kts | 90° |
| 2026-05-07 03:12 | 53.40776 | -7.51161 | 38929 ft | 490 kts | 85° |
| 2026-05-07 03:13 | 53.42724 | -7.05569 | 38946 ft | 491 kts | 86° |
| 2026-05-07 03:13 | 53.44495 | -6.59758 | 38954 ft | 491 kts | 86° |
| 2026-05-07 03:14 | 53.46083 | -6.14091 | 38955 ft | 490 kts | 86° |
| 2026-05-07 03:15 | 53.47913 | -5.45532 | 38980 ft | 490 kts | 93° |
| 2026-05-07 03:15 | 53.46547 | -4.99760 | 38991 ft | 491 kts | 92° |
| 2026-05-07 03:16 | 53.45011 | -4.54033 | 38994 ft | 491 kts | 92° |
| 2026-05-07 03:16 | 53.43314 | -4.08622 | 38993 ft | 490 kts | 93° |
| 2026-05-07 03:17 | 53.40956 | -3.63110 | 38998 ft | 490 kts | 103° |
| 2026-05-07 03:17 | 53.35857 | -3.41905 | 39009 ft | 493 kts | 115° |
| 2026-05-07 03:17 | 53.29894 | -3.21192 | 39034 ft | 495 kts | 115° |
| 2026-05-07 03:18 | 53.17768 | -2.79866 | 39036 ft | 496 kts | 116° |
| 2026-05-07 03:18 | 53.05452 | -2.38672 | 39045 ft | 494 kts | 119° |
| 2026-05-07 03:18 | 53.01134 | -2.29328 | 38877 ft | 490 kts | 136° |
| 2026-05-07 03:19 | 52.95850 | -2.22857 | 37448 ft | 489 kts | 148° |
| 2026-05-07 03:19 | 52.90057 | -2.16864 | 35737 ft | 489 kts | 146° |
| 2026-05-07 03:19 | 52.84313 | -2.10861 | 34240 ft | 485 kts | 146° |
| 2026-05-07 03:19 | 52.78682 | -2.04994 | 32992 ft | 472 kts | 146° |
| 2026-05-07 03:20 | 52.73176 | -1.99275 | 31307 ft | 470 kts | 146° |
| 2026-05-07 03:20 | 52.67597 | -1.93501 | 29442 ft | 471 kts | 146° |
| 2026-05-07 03:20 | 52.62176 | -1.87916 | 28579 ft | 448 kts | 147° |
| 2026-05-07 03:20 | 52.56973 | -1.82567 | 27372 ft | 436 kts | 147° |
| 2026-05-07 03:21 | 52.51891 | -1.77354 | 26231 ft | 426 kts | 147° |
| 2026-05-07 03:21 | 52.46889 | -1.72238 | 25070 ft | 418 kts | 147° |
| 2026-05-07 03:21 | 52.43843 | -1.69131 | 24364 ft | 413 kts | 147° |
| 2026-05-07 03:21 | 52.41377 | -1.66618 | 23786 ft | 410 kts | 147° |
| 2026-05-07 03:22 | 52.38965 | -1.64165 | 23148 ft | 407 kts | 148° |
| 2026-05-07 03:22 | 52.36574 | -1.61735 | 22598 ft | 401 kts | 148° |
| 2026-05-07 03:22 | 52.34215 | -1.59341 | 22028 ft | 397 kts | 148° |
| 2026-05-07 03:22 | 52.31915 | -1.57010 | 21511 ft | 392 kts | 148° |
| 2026-05-07 03:23 | 52.29579 | -1.54645 | 20921 ft | 388 kts | 148° |
| 2026-05-07 03:23 | 52.27321 | -1.52361 | 20382 ft | 385 kts | 148° |
| 2026-05-07 03:23 | 52.25049 | -1.50066 | 20087 ft | 385 kts | 149° |
| 2026-05-07 03:23 | 52.22755 | -1.47753 | 20051 ft | 388 kts | 148° |
| 2026-05-07 03:24 | 52.20546 | -1.45182 | 19809 ft | 392 kts | 141° |
| 2026-05-07 03:24 | 52.18492 | -1.42287 | 19409 ft | 389 kts | 140° |
| 2026-05-07 03:24 | 52.16463 | -1.39415 | 19022 ft | 384 kts | 140° |
| 2026-05-07 03:24 | 52.14445 | -1.36577 | 18626 ft | 382 kts | 140° |
| 2026-05-07 03:25 | 52.12433 | -1.33760 | 18207 ft | 381 kts | 140° |
| 2026-05-07 03:25 | 52.10427 | -1.30963 | 17808 ft | 378 kts | 140° |
| 2026-05-07 03:25 | 52.08432 | -1.28187 | 17436 ft | 376 kts | 140° |
| 2026-05-07 03:25 | 52.06443 | -1.25425 | 17052 ft | 374 kts | 140° |
| 2026-05-07 03:26 | 52.04472 | -1.22690 | 16675 ft | 372 kts | 140° |
| 2026-05-07 03:26 | 52.02515 | -1.19977 | 16409 ft | 366 kts | 140° |
| 2026-05-07 03:26 | 52.00612 | -1.17342 | 16263 ft | 352 kts | 140° |
| 2026-05-07 03:26 | 51.98790 | -1.14821 | 16130 ft | 338 kts | 140° |
| 2026-05-07 03:27 | 51.97043 | -1.12405 | 15898 ft | 322 kts | 140° |
| 2026-05-07 03:27 | 51.95390 | -1.10123 | 15756 ft | 304 kts | 140° |
| 2026-05-07 03:27 | 51.93820 | -1.07957 | 15585 ft | 287 kts | 140° |
| 2026-05-07 03:27 | 51.92315 | -1.05884 | 15125 ft | 283 kts | 141° |
| 2026-05-07 03:28 | 51.90814 | -1.03820 | 14588 ft | 283 kts | 141° |
| 2026-05-07 03:28 | 51.89318 | -1.01764 | 14091 ft | 280 kts | 141° |
| 2026-05-07 03:28 | 51.87839 | -0.99733 | 13570 ft | 278 kts | 141° |
| 2026-05-07 03:28 | 51.86231 | -0.98024 | 12762 ft | 280 kts | 159° |
| 2026-05-07 03:29 | 51.84361 | -0.96885 | 11725 ft | 295 kts | 161° |
| 2026-05-07 03:29 | 51.82341 | -0.95881 | 10617 ft | 317 kts | 172° |
| 2026-05-07 03:29 | 51.80092 | -0.95453 | 9504 ft | 333 kts | 167° |
| 2026-05-07 03:29 | 51.77898 | -0.94163 | 8347 ft | 338 kts | 155° |
| 2026-05-07 03:30 | 51.75781 | -0.92499 | 7221 ft | 340 kts | 154° |
| 2026-05-07 03:30 | 51.73663 | -0.90903 | 6228 ft | 338 kts | 156° |
| 2026-05-07 03:30 | 51.71563 | -0.89476 | 5864 ft | 316 kts | 158° |
| 2026-05-07 03:30 | 51.69562 | -0.88209 | 5610 ft | 293 kts | 159° |
| 2026-05-07 03:31 | 51.67744 | -0.87104 | 5424 ft | 274 kts | 160° |
| 2026-05-07 03:31 | 51.66013 | -0.86071 | 5245 ft | 255 kts | 160° |
| 2026-05-07 03:31 | 51.64420 | -0.85127 | 5139 ft | 233 kts | 160° |
| 2026-05-07 03:31 | 51.62949 | -0.84258 | 5036 ft | 221 kts | 160° |
| 2026-05-07 03:32 | 51.61541 | -0.83426 | 4937 ft | 210 kts | 160° |
| 2026-05-07 03:32 | 51.60234 | -0.82654 | 4824 ft | 186 kts | 160° |
| 2026-05-07 03:32 | 51.59066 | -0.81963 | 4270 ft | 178 kts | 160° |
| 2026-05-07 03:32 | 51.57887 | -0.81270 | 3566 ft | 181 kts | 159° |
| 2026-05-07 03:33 | 51.56702 | -0.80571 | 3254 ft | 183 kts | 160° |
| 2026-05-07 03:33 | 51.55503 | -0.79860 | 3123 ft | 184 kts | 160° |
| 2026-05-07 03:33 | 51.54299 | -0.79149 | 3045 ft | 184 kts | 160° |
| 2026-05-07 03:33 | 51.53095 | -0.78439 | 3049 ft | 184 kts | 160° |
| 2026-05-07 03:34 | 51.51896 | -0.77733 | 3047 ft | 184 kts | 160° |
| 2026-05-07 03:34 | 51.50690 | -0.77023 | 3047 ft | 184 kts | 160° |
| 2026-05-07 03:34 | 51.49486 | -0.76315 | 3046 ft | 184 kts | 159° |
| 2026-05-07 03:34 | 51.48415 | -0.75245 | 3045 ft | 178 kts | 131° |
| 2026-05-07 03:35 | 51.47877 | -0.73649 | 3046 ft | 153 kts | 108° |
| 2026-05-07 03:35 | 51.47675 | -0.72047 | 3025 ft | 143 kts | 97° |
| 2026-05-07 03:35 | 51.47612 | -0.70486 | 2860 ft | 141 kts | 92° |
| 2026-05-07 03:35 | 51.47604 | -0.68901 | 2668 ft | 140 kts | 90° |
| 2026-05-07 03:36 | 51.47611 | -0.67343 | 2478 ft | 139 kts | 90° |
| 2026-05-07 03:36 | 51.47620 | -0.65793 | 2288 ft | 139 kts | 90° |
| 2026-05-07 03:36 | 51.47637 | -0.64267 | 2063 ft | 138 kts | 89° |
| 2026-05-07 03:36 | 51.47659 | -0.62732 | 1859 ft | 138 kts | 89° |
| 2026-05-07 03:37 | 51.47663 | -0.61203 | 1637 ft | 137 kts | 91° |
| 2026-05-07 03:37 | 51.47657 | -0.59677 | 1414 ft | 136 kts | 89° |
| 2026-05-07 03:37 | 51.47680 | -0.58156 | 1279 ft | 137 kts | 89° |
| 2026-05-07 03:37 | 51.47699 | -0.56633 | 1086 ft | 137 kts | 89° |
| 2026-05-07 03:38 | 51.47709 | -0.55108 | 873 ft | 136 kts | 88° |
| 2026-05-07 03:38 | 51.47717 | -0.53586 | 738 ft | 137 kts | 89° |
| 2026-05-07 03:38 | 51.47724 | -0.52057 | 551 ft | 137 kts | 88° |
| 2026-05-07 03:38 | 51.47742 | -0.50540 | 366 ft | 136 kts | 87° |
| 2026-05-07 03:39 | 51.47754 | -0.49027 | 188 ft | 135 kts | 88° |
| 2026-05-07 03:39 | 51.47757 | -0.47534 | 94 ft | 125 kts | 89° |
| 2026-05-07 03:39 | 51.47760 | -0.46424 | 96 ft | 70 kts | 90° |
| 2026-05-07 03:39 | 51.47765 | -0.45849 | 93 ft | 37 kts | 90° |
| 2026-05-07 03:40 | 51.47764 | -0.45618 | 93 ft | 18 kts | 90° |
| 2026-05-07 03:40 | 51.47707 | -0.45483 | 94 ft | 14 kts | 159° |
| 2026-05-07 03:40 | 51.47674 | -0.45469 | 93 ft | 5 kts | 169° |
| 2026-05-07 03:40 | 51.47621 | -0.45460 | 91 ft | 11 kts | 182° |
| 2026-05-07 03:41 | 51.47535 | -0.45437 | 95 ft | 12 kts | 136° |
| 2026-05-07 03:41 | 51.47512 | -0.45317 | 94 ft | 13 kts | 101° |
| 2026-05-07 03:41 | 51.47505 | -0.45149 | 94 ft | 17 kts | 93° |
| 2026-05-07 03:41 | 51.47510 | -0.44942 | 95 ft | 19 kts | 86° |
| 2026-05-07 03:42 | 51.47508 | -0.44738 | 95 ft | 18 kts | 89° |
| 2026-05-07 03:42 | 51.47509 | -0.44640 | 95 ft | 9 kts | 90° |
| 2026-05-07 03:42 | 51.47504 | -0.44514 | 95 ft | 14 kts | 94° |
| 2026-05-07 03:42 | 51.47502 | -0.44342 | 93 ft | 17 kts | 89° |
| 2026-05-07 03:43 | 51.47504 | -0.44151 | 94 ft | 14 kts | 98° |
| 2026-05-07 03:43 | 51.47449 | -0.44066 | 93 ft | 13 kts | 173° |
| 2026-05-07 03:43 | 51.47356 | -0.44057 | 91 ft | 14 kts | 179° |
| 2026-05-07 03:43 | 51.47270 | -0.44057 | 93 ft | 10 kts | 180° |
| 2026-05-07 03:44 | 51.47204 | -0.44060 | 92 ft | 0 kts | 206° |
| 2026-05-07 03:44 | 51.47199 | -0.44064 | 94 ft | 2 kts | 225° |
| 2026-05-07 03:44 | 51.47193 | -0.44098 | 94 ft | 7 kts | 263° |
| 2026-05-07 03:44 | 51.47188 | -0.44179 | 93 ft | 1 kts | 266° |
| 2026-05-07 03:45 | 51.47188 | -0.44201 | 91 ft | 0 kts | 268° |